Time;durP1;ratioP1;P1;durP2;ratioP2;P2;SDS_P1;SDS_P2;PMS_P1;PMS_P2;Temp;Humidity;BMP_temperature;BMP_pressure;BME280_temperature;BME280_humidity;BME280_pressure;Samples;Min_cycle;Max_cycle;Signal;HPM_P1;HPM_P2
2022/05/03 00:01:57;;;;;;;4.73;3.53;;;11.10;99.90;;;;;;5073083;28;20401;-69
2022/05/03 00:04:34;;;;;;;4.00;2.97;;;11.00;99.90;;;;;;5072928;28;20404;-69
2022/05/03 00:07:12;;;;;;;6.00;3.80;;;11.00;99.90;;;;;;5072888;28;21052;-69
2022/05/03 00:10:01;;;;;;;3.37;3.07;;;10.90;99.90;;;;;;5072812;28;20429;-70
2022/05/03 00:12:44;;;;;;;3.70;3.40;;;10.90;99.90;;;;;;5072840;28;20447;-69
2022/05/03 00:15:12;;;;;;;7.00;3.10;;;10.80;99.90;;;;;;5072583;28;20501;-68
2022/05/03 00:17:41;;;;;;;4.40;3.37;;;10.80;99.90;;;;;;5072560;28;20439;-68
2022/05/03 00:20:07;;;;;;;3.30;3.10;;;10.80;99.90;;;;;;5054726;28;20465;-68
2022/05/03 00:22:32;;;;;;;5.03;4.00;;;10.70;99.90;;;;;;5072516;28;20404;-69
2022/05/03 00:24:58;;;;;;;4.70;3.27;;;10.70;99.90;;;;;;5072386;28;20753;-69
2022/05/03 00:27:25;;;;;;;3.83;3.53;;;10.60;99.90;;;;;;5072758;28;20166;-68
2022/05/03 00:29:55;;;;;;;3.63;3.33;;;10.70;99.90;;;;;;5072497;28;20420;-69
2022/05/03 00:32:22;;;;;;;5.67;3.43;;;10.70;99.90;;;;;;5072626;28;20775;-69
2022/05/03 00:34:51;;;;;;;6.10;3.40;;;10.70;99.90;;;;;;5072181;28;20954;-69
2022/05/03 00:37:17;;;;;;;3.27;2.97;;;10.60;99.90;;;;;;5072081;28;20408;-69
2022/05/03 00:39:43;;;;;;;3.40;2.70;;;10.60;99.90;;;;;;5072329;28;20468;-69
2022/05/03 00:42:20;;;;;;;4.57;4.10;;;10.60;99.90;;;;;;5072352;28;20216;-69
2022/05/03 00:44:58;;;;;;;5.37;3.67;;;10.70;99.90;;;;;;5072046;28;20925;-69
2022/05/03 00:47:40;;;;;;;4.30;3.13;;;10.70;99.90;;;;;;5072120;28;20774;-69
2022/05/03 00:50:08;;;;;;;6.80;4.10;;;10.60;99.90;;;;;;5072049;28;20405;-69
2022/05/03 00:52:44;;;;;;;6.20;3.90;;;10.60;99.90;;;;;;5072208;28;20413;-69
2022/05/03 00:55:37;;;;;;;4.00;3.60;;;10.60;99.90;;;;;;5071810;28;21165;-69
2022/05/03 00:58:48;;;;;;;4.33;4.03;;;10.60;99.90;;;;;;5071837;28;20431;-69
2022/05/03 01:01:24;;;;;;;4.67;4.17;;;10.60;99.90;;;;;;5068162;28;20948;-69
2022/05/03 01:04:19;;;;;;;6.00;3.57;;;10.60;99.90;;;;;;5071754;28;20874;-69
2022/05/03 01:06:56;;;;;;;5.20;3.87;;;10.60;99.90;;;;;;5071610;28;20452;-69
2022/05/03 01:09:38;;;;;;;4.57;4.03;;;10.50;99.90;;;;;;5071741;28;20425;-68
2022/05/03 01:12:21;;;;;;;3.90;3.47;;;10.50;99.90;;;;;;5071425;28;20527;-68
2022/05/03 01:15:08;;;;;;;5.13;4.10;;;10.40;99.90;;;;;;5072827;28;20503;-68
2022/05/03 01:17:52;;;;;;;6.17;4.17;;;10.40;99.90;;;;;;5072529;28;20451;-68
2022/05/03 01:20:33;;;;;;;5.13;4.10;;;10.30;99.90;;;;;;5071465;28;20436;-68
2022/05/03 01:23:50;;;;;;;5.87;3.77;;;10.20;99.90;;;;;;5071262;28;20399;-68
2022/05/03 01:26:47;;;;;;;3.27;2.97;;;10.20;99.90;;;;;;5071327;28;20411;-70
2022/05/03 01:29:21;;;;;;;5.47;3.53;;;10.20;99.90;;;;;;5071183;28;20431;-70
2022/05/03 01:31:47;;;;;;;4.17;3.47;;;10.20;99.90;;;;;;5071062;28;20469;-68
2022/05/03 01:34:18;;;;;;;3.90;3.03;;;10.20;99.90;;;;;;5071291;28;20551;-68
2022/05/03 01:37:02;;;;;;;3.40;2.93;;;10.10;99.90;;;;;;5071176;28;20769;-68
2022/05/03 01:39:45;;;;;;;4.80;4.00;;;10.10;99.90;;;;;;5071122;28;20424;-69
2022/05/03 01:42:21;;;;;;;4.13;3.40;;;10.00;99.90;;;;;;5070955;28;20401;-68
2022/05/03 01:45:10;;;;;;;4.43;3.57;;;9.90;99.90;;;;;;5069608;28;20774;-69
2022/05/03 01:47:57;;;;;;;8.00;3.43;;;9.90;99.90;;;;;;5071518;28;20405;-69
2022/05/03 01:51:01;;;;;;;3.63;3.20;;;9.90;99.90;;;;;;5075473;28;20400;-69
2022/05/03 01:53:36;;;;;;;4.80;3.90;;;9.80;99.90;;;;;;5074556;28;21026;-69
2022/05/03 01:56:41;;;;;;;8.80;3.10;;;9.60;99.90;;;;;;5075364;28;20761;-69
2022/05/03 01:59:31;;;;;;;5.17;4.00;;;9.50;99.90;;;;;;5075006;28;20859;-68
2022/05/03 02:02:00;;;;;;;4.03;3.40;;;9.40;99.90;;;;;;5074785;28;20405;-68
2022/05/03 02:04:40;;;;;;;6.40;3.50;;;9.40;99.90;;;;;;5074761;28;20780;-68
2022/05/03 02:07:24;;;;;;;4.40;3.53;;;9.40;99.90;;;;;;5076680;28;20769;-69
2022/05/03 02:10:22;;;;;;;3.93;3.60;;;9.40;99.90;;;;;;5076302;28;20940;-69
2022/05/03 02:12:53;;;;;;;4.20;3.80;;;9.40;99.90;;;;;;5075297;28;20432;-69
2022/05/03 02:15:39;;;;;;;5.37;4.40;;;9.50;99.90;;;;;;5075263;28;20460;-69
2022/05/03 02:18:16;;;;;;;4.00;3.23;;;9.50;99.90;;;;;;5074893;28;20879;-69
2022/05/03 02:21:00;;;;;;;4.37;4.07;;;9.50;99.90;;;;;;5074544;28;20404;-69
2022/05/03 02:23:35;;;;;;;4.60;4.10;;;9.50;99.90;;;;;;5074506;28;20408;-69
2022/05/03 02:26:23;;;;;;;4.77;3.47;;;9.60;99.90;;;;;;5074216;28;20837;-68
2022/05/03 02:28:56;;;;;;;3.70;3.17;;;9.60;99.90;;;;;;5074172;28;20428;-68
2022/05/03 02:31:39;;;;;;;6.93;4.33;;;9.60;99.90;;;;;;5074041;28;20916;-68
2022/05/03 02:34:18;;;;;;;4.60;3.93;;;9.60;99.90;;;;;;5074315;28;20771;-68
2022/05/03 02:36:54;;;;;;;4.10;3.33;;;9.60;99.90;;;;;;5074344;28;20412;-68
2022/05/03 02:39:24;;;;;;;4.40;3.73;;;9.60;99.90;;;;;;5074090;28;20428;-69
2022/05/03 02:41:54;;;;;;;9.33;4.30;;;9.60;99.90;;;;;;5074079;28;20405;-68
2022/05/03 02:44:20;;;;;;;3.50;3.20;;;9.60;99.90;;;;;;5072747;28;20443;-69
2022/05/03 02:47:05;;;;;;;5.73;3.83;;;9.60;99.90;;;;;;5073873;28;20424;-69
2022/05/03 02:50:01;;;;;;;5.97;3.57;;;9.50;99.90;;;;;;5073809;28;20444;-69
2022/05/03 02:52:54;;;;;;;4.13;3.70;;;9.50;99.90;;;;;;5073775;28;20413;-69
2022/05/03 02:55:20;;;;;;;5.67;4.13;;;9.50;99.90;;;;;;5073817;28;20547;-70
2022/05/03 02:57:54;;;;;;;4.87;3.77;;;9.40;99.90;;;;;;5073678;28;20950;-70
2022/05/03 03:03:31;;;;;;;4.20;3.80;;;9.30;99.90;;;;;;5076676;28;20408;-69
2022/05/03 03:05:59;;;;;;;4.77;4.10;;;9.20;99.90;;;;;;5074039;28;20913;-70
2022/05/03 03:08:28;;;;;;;5.37;4.80;;;9.10;99.90;;;;;;5073564;28;20895;-69
2022/05/03 03:11:24;;;;;;;4.07;3.50;;;9.10;99.90;;;;;;5073475;28;20408;-69
2022/05/03 03:14:10;;;;;;;5.53;4.60;;;9.00;99.90;;;;;;5066726;28;20456;-69
2022/05/03 03:16:43;;;;;;;5.53;3.70;;;9.00;99.90;;;;;;5073420;28;20437;-69
2022/05/03 03:19:30;;;;;;;3.67;3.27;;;9.00;99.90;;;;;;5073251;28;20443;-69
2022/05/03 03:21:58;;;;;;;4.03;3.50;;;9.00;99.90;;;;;;5073128;28;20401;-69
2022/05/03 03:24:25;;;;;;;3.33;3.10;;;9.00;99.90;;;;;;5073283;28;20412;-69
2022/05/03 03:26:52;;;;;;;6.77;4.60;;;9.00;99.90;;;;;;5073096;28;20412;-69
2022/05/03 03:29:19;;;;;;;6.13;3.63;;;9.00;99.90;;;;;;5073039;28;20430;-69
2022/05/03 03:31:46;;;;;;;7.40;4.20;;;9.00;99.90;;;;;;5072920;28;20884;-69
2022/05/03 03:34:13;;;;;;;4.43;3.27;;;9.00;99.90;;;;;;5072862;28;20448;-69
2022/05/03 03:36:41;;;;;;;4.20;3.47;;;9.00;99.90;;;;;;5072848;28;20447;-69
2022/05/03 03:39:06;;;;;;;5.13;3.40;;;9.00;99.90;;;;;;5072885;28;20429;-68
2022/05/03 03:41:33;;;;;;;4.40;3.57;;;9.00;99.90;;;;;;5072759;28;20404;-69
2022/05/03 03:43:58;;;;;;;4.90;3.40;;;9.00;99.90;;;;;;5072844;28;20170;-69
2022/05/03 03:46:24;;;;;;;5.47;4.30;;;9.00;99.90;;;;;;5072550;28;20894;-68
2022/05/03 03:48:49;;;;;;;5.13;3.67;;;9.00;99.90;;;;;;5072659;28;20656;-69
2022/05/03 03:51:15;;;;;;;5.90;4.40;;;9.00;99.90;;;;;;5072737;28;20181;-68
2022/05/03 03:53:41;;;;;;;3.53;3.23;;;9.00;99.90;;;;;;5072652;28;20216;-68
2022/05/03 03:56:09;;;;;;;5.53;3.77;;;9.10;99.90;;;;;;5072532;28;20946;-69
2022/05/03 03:58:35;;;;;;;6.00;3.70;;;9.10;99.90;;;;;;5072687;28;20441;-69
2022/05/03 04:01:00;;;;;;;4.67;4.00;;;9.10;99.90;;;;;;5072224;28;20860;-68
2022/05/03 04:03:26;;;;;;;4.07;3.70;;;9.10;99.90;;;;;;5072297;28;20436;-69
2022/05/03 04:05:52;;;;;;;4.30;3.90;;;9.20;99.90;;;;;;5072283;28;20174;-69
2022/05/03 04:08:18;;;;;;;6.73;3.40;;;9.20;99.90;;;;;;5072242;28;20428;-69
2022/05/03 04:10:43;;;;;;;4.20;3.60;;;9.30;99.90;;;;;;5071629;28;20177;-69
2022/05/03 04:13:13;;;;;;;5.17;3.80;;;9.30;99.90;;;;;;5072580;28;20269;-70
2022/05/03 04:15:39;;;;;;;4.70;3.03;;;9.40;99.90;;;;;;5072003;28;20546;-69
2022/05/03 04:18:07;;;;;;;6.47;3.63;;;9.40;99.90;;;;;;5071996;28;20442;-69
2022/05/03 04:20:33;;;;;;;5.93;3.07;;;9.50;99.90;;;;;;5072217;28;20195;-70
2022/05/03 04:22:58;;;;;;;4.40;3.70;;;9.60;99.90;;;;;;5071924;28;20439;-70
2022/05/03 04:25:23;;;;;;;3.37;2.87;;;9.70;99.90;;;;;;5071982;28;20409;-69
2022/05/03 04:27:49;;;;;;;4.87;3.70;;;9.70;99.90;;;;;;5072202;28;20170;-68
2022/05/03 04:30:14;;;;;;;4.07;3.67;;;9.80;99.90;;;;;;5071932;28;20253;-69
2022/05/03 04:32:40;;;;;;;6.93;3.83;;;9.80;99.90;;;;;;5071823;28;20171;-68
2022/05/03 04:35:06;;;;;;;4.73;3.27;;;9.90;99.90;;;;;;5071764;28;20259;-68
2022/05/03 04:37:31;;;;;;;3.30;3.00;;;10.00;99.90;;;;;;5071806;28;20175;-69
2022/05/03 04:39:57;;;;;;;4.57;3.00;;;10.00;99.90;;;;;;5071691;28;20231;-69
2022/05/03 04:42:23;;;;;;;4.40;4.00;;;10.10;99.90;;;;;;5071685;28;20271;-69
2022/05/03 04:44:48;;;;;;;5.80;3.23;;;10.10;99.90;;;;;;5071595;28;20297;-68
2022/05/03 04:47:14;;;;;;;10.63;4.13;;;10.20;99.90;;;;;;5072039;28;20287;-68
2022/05/03 04:49:39;;;;;;;3.20;2.90;;;10.30;99.90;;;;;;5072974;28;20205;-68
2022/05/03 04:52:05;;;;;;;5.17;3.57;;;10.30;99.90;;;;;;5075322;28;20170;-69
2022/05/03 04:54:31;;;;;;;4.73;3.37;;;10.30;99.90;;;;;;5071429;28;20717;-69
2022/05/03 04:57:04;;;;;;;5.53;3.73;;;10.30;99.90;;;;;;5071508;28;20509;-69
2022/05/03 04:59:30;;;;;;;3.40;3.10;;;10.40;99.90;;;;;;5070103;28;20652;-68
2022/05/03 05:01:55;;;;;;;6.60;3.77;;;10.40;99.90;;;;;;5071529;28;20454;-69
2022/05/03 05:04:21;;;;;;;4.80;3.17;;;10.50;99.90;;;;;;5071449;28;20216;-69
2022/05/03 05:06:46;;;;;;;3.30;3.00;;;10.50;99.90;;;;;;5071309;28;20621;-69
2022/05/03 05:09:12;;;;;;;3.27;2.97;;;10.50;99.90;;;;;;5071238;28;20225;-69
2022/05/03 05:11:37;;;;;;;3.70;2.90;;;10.50;99.90;;;;;;5071313;28;20162;-69
2022/05/03 05:14:03;;;;;;;5.60;3.47;;;10.50;99.90;;;;;;5071503;28;20197;-69
2022/05/03 05:16:28;;;;;;;4.20;2.97;;;10.70;99.90;;;;;;5071396;28;20219;-69
2022/05/03 05:18:54;;;;;;;3.37;3.07;;;10.70;99.90;;;;;;5075556;23;20597;-71
2022/05/03 05:21:19;;;;;;;4.23;3.37;;;10.80;99.90;;;;;;5051047;28;20588;-71
2022/05/03 05:23:45;;;;;;;5.00;3.10;;;10.90;99.90;;;;;;5051636;28;20209;-70
2022/05/03 05:26:11;;;;;;;4.70;3.50;;;10.90;99.90;;;;;;5051559;28;20177;-70
2022/05/03 05:28:36;;;;;;;7.13;3.40;;;11.00;99.90;;;;;;5051440;28;20191;-71
2022/05/03 05:31:02;;;;;;;5.17;3.30;;;11.00;99.90;;;;;;5051449;28;20555;-70
2022/05/03 05:33:27;;;;;;;2.80;2.60;;;11.10;99.90;;;;;;5051468;28;20201;-70
2022/05/03 05:35:53;;;;;;;4.30;2.83;;;11.10;99.90;;;;;;5051453;28;20855;-70
2022/05/03 05:38:19;;;;;;;2.63;2.43;;;11.20;99.90;;;;;;5051356;28;20575;-69
2022/05/03 05:40:46;;;;;;;4.53;3.00;;;11.20;99.90;;;;;;5051220;28;20209;-70
2022/05/03 05:43:12;;;;;;;3.20;2.50;;;11.20;99.90;;;;;;5051282;28;20406;-69
2022/05/03 05:45:38;;;;;;;3.83;3.03;;;11.30;99.90;;;;;;5051485;28;20409;-70
2022/05/03 05:48:04;;;;;;;3.20;2.10;;;11.40;99.90;;;;;;5051663;28;20413;-69
2022/05/03 05:50:30;;;;;;;4.30;2.43;;;11.40;99.90;;;;;;5051283;28;20600;-70
2022/05/03 05:55:42;;;;;;;4.30;2.37;;;11.60;99.90;;;;;;5051813;28;20178;-70
2022/05/03 05:58:08;;;;;;;4.60;2.10;;;11.80;99.90;;;;;;5051121;28;20888;-70
2022/05/03 06:00:34;;;;;;;2.70;2.50;;;11.80;99.90;;;;;;5051570;28;20409;-70
2022/05/03 06:02:59;;;;;;;2.43;2.00;;;11.90;99.90;;;;;;5051170;28;20254;-71
2022/05/03 06:05:25;;;;;;;2.57;2.27;;;12.10;99.90;;;;;;5051116;28;20183;-69
2022/05/03 06:07:52;;;;;;;2.37;2.13;;;12.20;99.90;;;;;;5051207;28;20633;-70
2022/05/03 06:10:18;;;;;;;3.40;2.00;;;12.20;99.90;;;;;;5051175;28;20774;-71
2022/05/03 06:12:44;;;;;;;7.60;2.63;;;12.30;99.90;;;;;;5051471;28;20911;-72
2022/05/03 06:15:10;;;;;;;2.50;1.73;;;12.30;99.90;;;;;;5051217;28;20452;-70
2022/05/03 06:17:35;;;;;;;5.23;2.50;;;12.20;99.90;;;;;;5051214;28;20191;-72
2022/05/03 06:20:01;;;;;;;1.70;1.60;;;12.30;99.90;;;;;;5051010;28;20203;-71
2022/05/03 06:22:26;;;;;;;2.40;2.20;;;12.50;99.90;;;;;;5051402;28;20175;-71
2022/05/03 06:24:52;;;;;;;3.10;2.03;;;12.60;99.90;;;;;;5050801;28;20233;-73
2022/05/03 06:27:17;;;;;;;2.20;2.10;;;13.00;99.90;;;;;;5051097;28;20159;-70
2022/05/03 06:29:43;;;;;;;1.93;1.83;;;13.10;99.90;;;;;;5051289;28;20286;-71
2022/05/03 06:32:12;;;;;;;2.07;1.87;;;13.10;99.90;;;;;;5051042;28;20167;-72
2022/05/03 06:34:38;;;;;;;2.03;1.73;;;13.80;99.60;;;;;;5053260;28;20198;-72
2022/05/03 06:37:04;;;;;;;1.93;1.70;;;14.60;98.50;;;;;;5054871;28;20954;-72
2022/05/03 06:39:30;;;;;;;1.90;1.80;;;15.20;95.90;;;;;;5054468;28;20682;-69
2022/05/03 06:41:55;;;;;;;2.10;1.50;;;15.80;94.30;;;;;;5054289;28;20401;-71
2022/05/03 06:44:22;;;;;;;2.23;1.77;;;16.20;94.00;;;;;;5054071;28;20181;-70
2022/05/03 06:46:47;;;;;;;1.60;1.50;;;16.20;94.30;;;;;;5053709;28;20175;-70
2022/05/03 06:49:12;;;;;;;1.77;1.67;;;17.40;92.60;;;;;;5053298;28;20431;-71
2022/05/03 06:51:38;;;;;;;1.77;1.67;;;18.00;91.20;;;;;;5054202;28;20180;-70
2022/05/03 06:54:03;;;;;;;2.07;1.60;;;18.50;86.80;;;;;;5054089;28;20197;-71
2022/05/03 06:56:35;;;;;;;1.30;1.20;;;17.40;85.80;;;;;;5054039;28;20172;-71
2022/05/03 06:59:02;;;;;;;5.40;1.90;;;16.90;85.70;;;;;;5054053;28;20192;-70
2022/05/03 07:01:27;;;;;;;2.53;1.30;;;16.70;87.30;;;;;;5053946;28;20404;-71
2022/05/03 07:03:53;;;;;;;1.47;1.13;;;17.50;86.00;;;;;;5054055;28;20768;-71
2022/05/03 07:06:21;;;;;;;1.83;1.40;;;17.80;85.20;;;;;;5053840;28;20215;-71
2022/05/03 07:08:47;;;;;;;2.30;1.57;;;18.20;83.30;;;;;;5054249;28;20195;-72
2022/05/03 07:11:12;;;;;;;2.50;1.40;;;18.10;82.50;;;;;;5054080;28;20428;-72
2022/05/03 07:13:38;;;;;;;1.57;1.20;;;18.00;82.20;;;;;;5053903;28;20511;-72
2022/05/03 07:16:04;;;;;;;1.67;1.33;;;18.40;84.00;;;;;;5053884;28;20632;-70
2022/05/03 07:23:58;;;;;;;2.83;1.67;;;18.70;84.10;;;;;;5043929;28;20800;-71
2022/05/03 07:26:23;;;;;;;2.30;1.50;;;18.80;81.20;;;;;;5048520;28;20411;-71
2022/05/03 07:28:49;;;;;;;2.57;1.17;;;18.40;82.00;;;;;;5034116;28;20689;-71
2022/05/03 07:31:19;;;;;;;3.57;1.47;;;17.90;83.50;;;;;;5034698;28;20686;-71
2022/05/03 07:33:45;;;;;;;2.03;1.80;;;19.00;80.30;;;;;;5050453;28;20317;-71
2022/05/03 07:36:11;;;;;;;1.50;1.30;;;18.40;80.80;;;;;;5053207;28;20905;-71
2022/05/03 07:38:37;;;;;;;1.73;1.63;;;18.30;78.20;;;;;;5053314;28;20509;-71
2022/05/03 07:41:02;;;;;;;3.57;1.30;;;18.00;78.60;;;;;;5052067;28;20184;-70
2022/05/03 07:43:28;;;;;;;1.60;1.50;;;18.40;77.80;;;;;;5053197;28;20761;-71
2022/05/03 07:45:54;;;;;;;2.80;1.67;;;19.30;76.70;;;;;;5052945;28;20646;-71
2022/05/03 07:48:20;;;;;;;1.60;1.50;;;18.80;78.20;;;;;;5053049;28;20207;-71
2022/05/03 07:50:46;;;;;;;1.63;1.23;;;18.50;74.90;;;;;;5053093;28;20442;-70
2022/05/03 07:53:12;;;;;;;1.60;1.10;;;19.50;73.60;;;;;;5052916;28;20412;-71
2022/05/03 07:55:37;;;;;;;1.67;1.13;;;20.10;70.80;;;;;;5053080;28;20408;-71
2022/05/03 07:58:03;;;;;;;1.23;1.00;;;20.20;70.00;;;;;;5051377;28;20261;-71
2022/05/03 08:00:28;;;;;;;0.90;0.90;;;19.50;67.20;;;;;;5052690;28;20185;-71
2022/05/03 08:02:54;;;;;;;1.30;1.20;;;20.20;67.00;;;;;;5052670;28;20168;-71
2022/05/03 08:05:19;;;;;;;1.87;1.40;;;21.10;64.20;;;;;;5052913;28;20324;-71
2022/05/03 08:07:46;;;;;;;1.40;1.30;;;19.30;65.60;;;;;;5053157;28;20332;-71
2022/05/03 08:10:12;;;;;;;1.40;1.20;;;18.90;67.30;;;;;;5052820;28;20204;-72
2022/05/03 08:12:37;;;;;;;3.20;2.03;;;19.10;68.30;;;;;;5052561;28;20439;-71
2022/05/03 08:15:04;;;;;;;2.40;1.80;;;19.40;69.70;;;;;;5052446;28;20243;-71
2022/05/03 08:17:30;;;;;;;1.47;1.37;;;19.30;66.60;;;;;;5052619;28;20252;-71
2022/05/03 08:19:56;;;;;;;2.03;1.83;;;19.50;69.70;;;;;;5052449;28;20443;-71
2022/05/03 08:22:21;;;;;;;3.07;1.17;;;19.90;68.70;;;;;;5052618;28;20405;-72
2022/05/03 08:24:47;;;;;;;1.30;1.20;;;20.30;70.90;;;;;;5052494;28;20209;-71
2022/05/03 08:27:13;;;;;;;2.27;1.30;;;21.10;65.70;;;;;;5052311;28;20216;-71
2022/05/03 08:29:38;;;;;;;1.40;1.30;;;21.10;64.50;;;;;;5052038;28;20213;-71
2022/05/03 08:32:05;;;;;;;1.80;1.43;;;19.80;66.30;;;;;;5051872;28;20209;-72
2022/05/03 08:34:31;;;;;;;1.17;1.07;;;20.20;68.70;;;;;;5052046;28;20209;-72
2022/05/03 08:42:25;;;;;;;1.93;1.77;;;21.20;61.10;;;;;;5051530;28;20496;-71
2022/05/03 08:44:51;;;;;;;2.10;1.87;;;20.50;62.60;;;;;;5052032;28;20438;-72
2022/05/03 08:47:19;;;;;;;1.90;1.70;;;19.90;63.80;;;;;;5052121;28;20255;-72
2022/05/03 08:50:06;;;;;;;2.30;2.10;;;19.80;64.90;;;;;;5051928;28;20189;-70
2022/05/03 08:52:43;;;;;;;1.83;1.73;;;20.80;59.90;;;;;;5051913;28;20515;-72
2022/05/03 08:55:11;;;;;;;1.90;1.33;;;20.70;61.00;;;;;;5033870;28;20586;-72
2022/05/03 08:57:37;;;;;;;2.27;1.33;;;21.40;60.60;;;;;;5051484;28;20412;-71
2022/05/03 09:00:05;;;;;;;2.10;1.90;;;21.00;59.80;;;;;;5051976;28;20507;-71
2022/05/03 09:02:31;;;;;;;3.07;1.50;;;19.10;63.90;;;;;;5051915;28;20412;-72
2022/05/03 09:04:57;;;;;;;1.60;1.50;;;20.20;66.90;;;;;;5051645;28;20941;-71
2022/05/03 09:07:24;;;;;;;1.47;1.37;;;21.70;62.20;;;;;;5051317;28;20406;-70
2022/05/03 09:09:52;;;;;;;1.80;1.60;;;21.40;60.50;;;;;;5051087;28;20190;-70
2022/05/03 09:12:21;;;;;;;1.37;1.20;;;22.10;61.50;;;;;;5051706;28;20447;-72
2022/05/03 09:14:46;;;;;;;4.50;2.97;;;21.70;61.60;;;;;;5048401;28;20463;-72
2022/05/03 09:17:12;;;;;;;3.27;2.20;;;22.50;59.80;;;;;;5041781;28;20414;-73
2022/05/03 09:19:37;;;;;;;2.33;1.77;;;22.70;59.40;;;;;;5037581;28;20214;-73
2022/05/03 09:25:04;;;;;;;1.63;1.20;;;23.70;56.70;;;;;;5050222;28;20655;-72
2022/05/03 09:27:31;;;;;;;1.43;1.33;;;22.80;55.10;;;;;;5047785;28;20488;-72
2022/05/03 09:30:01;;;;;;;1.40;1.30;;;21.30;56.30;;;;;;5051141;28;20479;-70
2022/05/03 09:32:56;;;;;;;1.70;1.60;;;20.90;59.30;;;;;;5051117;28;20475;-71
2022/05/03 09:35:35;;;;;;;2.00;1.67;;;21.80;57.80;;;;;;5049653;28;20871;-71
2022/05/03 09:38:03;;;;;;;1.97;1.67;;;22.20;56.80;;;;;;5051113;28;20401;-71
2022/05/03 09:40:34;;;;;;;1.17;1.07;;;20.60;56.30;;;;;;5050987;28;20437;-71
2022/05/03 09:43:00;;;;;;;1.40;1.27;;;21.10;57.20;;;;;;5051236;28;20444;-72
2022/05/03 09:45:26;;;;;;;1.03;0.90;;;20.90;55.50;;;;;;5051207;28;20401;-71
2022/05/03 09:47:57;;;;;;;1.20;1.07;;;20.30;57.40;;;;;;5051190;28;20261;-71
2022/05/03 09:50:43;;;;;;;2.43;1.20;;;20.40;57.00;;;;;;5049873;28;20416;-70
2022/05/03 09:53:19;;;;;;;1.50;1.40;;;21.10;56.10;;;;;;5050987;28;20407;-71
2022/05/03 09:55:47;;;;;;;1.03;0.90;;;19.80;56.90;;;;;;5050748;28;20422;-72
2022/05/03 09:58:14;;;;;;;1.80;1.10;;;20.40;57.50;;;;;;5050951;28;20498;-71
2022/05/03 10:00:42;;;;;;;1.40;1.30;;;20.40;55.70;;;;;;5051075;28;20404;-72
2022/05/03 10:03:09;;;;;;;0.80;0.80;;;19.50;56.70;;;;;;5051003;28;20404;-72
2022/05/03 10:05:37;;;;;;;1.30;1.13;;;19.70;55.80;;;;;;5050593;28;20401;-71
2022/05/03 10:08:03;;;;;;;1.30;1.20;;;20.30;54.00;;;;;;5050946;28;20952;-72
2022/05/03 10:10:29;;;;;;;1.00;0.83;;;20.50;53.60;;;;;;5054700;28;20728;-72
2022/05/03 10:12:55;;;;;;;1.07;0.97;;;19.30;53.20;;;;;;5054794;28;20402;-72
2022/05/03 10:21:13;;;;;;;1.00;0.90;;;19.30;58.00;;;;;;5054811;28;20442;-70
2022/05/03 10:23:39;;;;;;;1.47;1.30;;;19.00;57.90;;;;;;5054289;28;20415;-72
2022/05/03 10:26:06;;;;;;;2.47;1.20;;;19.00;57.00;;;;;;5054371;28;20455;-72
2022/05/03 10:29:00;;;;;;;2.30;1.33;;;18.30;57.90;;;;;;5054181;28;20231;-71
2022/05/03 10:31:26;;;;;;;1.10;1.00;;;18.10;58.50;;;;;;5034472;28;20413;-71
2022/05/03 10:33:52;;;;;;;1.50;1.40;;;18.50;58.60;;;;;;5034628;28;20454;-70
2022/05/03 10:36:29;;;;;;;1.10;1.00;;;18.30;58.60;;;;;;5034164;28;20167;-71
2022/05/03 10:39:03;;;;;;;1.30;1.17;;;18.30;59.50;;;;;;5048032;28;20197;-71
2022/05/03 10:41:29;;;;;;;1.10;0.97;;;18.60;58.00;;;;;;5054404;28;20455;-71
2022/05/03 10:43:54;;;;;;;2.10;1.10;;;18.40;56.60;;;;;;5054093;28;21003;-71
2022/05/03 10:46:22;;;;;;;1.97;1.03;;;18.80;57.70;;;;;;5054126;28;20668;-71
2022/05/03 10:49:04;;;;;;;1.40;1.10;;;18.70;57.30;;;;;;5057639;28;20231;-71
2022/05/03 10:51:30;;;;;;;2.07;1.40;;;18.60;56.60;;;;;;5074133;28;20900;-70
2022/05/03 10:53:59;;;;;;;1.00;0.90;;;18.70;58.60;;;;;;5074020;28;20509;-70
2022/05/03 10:56:25;;;;;;;0.90;0.90;;;18.60;58.10;;;;;;5062599;28;20164;-70
2022/05/03 10:59:10;;;;;;;1.17;1.07;;;18.50;58.10;;;;;;5053884;28;20446;-71
2022/05/03 11:01:55;;;;;;;1.13;1.03;;;19.10;57.70;;;;;;5053991;28;20484;-71
2022/05/03 11:04:21;;;;;;;0.80;0.80;;;18.70;56.60;;;;;;5053873;28;20778;-71
2022/05/03 11:06:49;;;;;;;1.30;1.03;;;18.80;58.30;;;;;;5053779;28;20434;-71
2022/05/03 11:09:26;;;;;;;1.27;1.10;;;18.70;59.10;;;;;;5053687;28;20435;-69
2022/05/03 11:11:54;;;;;;;1.10;0.90;;;18.80;58.50;;;;;;5053898;28;20441;-70
2022/05/03 11:14:21;;;;;;;1.70;1.60;;;18.20;58.00;;;;;;5053484;28;20452;-71
2022/05/03 11:16:48;;;;;;;0.97;0.87;;;17.20;59.30;;;;;;5053811;28;20405;-71
2022/05/03 11:19:18;;;;;;;1.20;1.10;;;18.10;60.50;;;;;;5070712;22;20486;-69
2022/05/03 11:21:45;;;;;;;2.17;1.10;;;18.50;59.90;;;;;;5033894;28;20491;-69
2022/05/03 11:24:25;;;;;;;1.90;0.90;;;18.60;58.90;;;;;;5034577;28;20426;-69
2022/05/03 11:26:56;;;;;;;1.27;0.90;;;18.60;57.70;;;;;;5033868;28;20403;-69
2022/05/03 11:29:31;;;;;;;1.00;0.90;;;18.30;57.40;;;;;;5033980;28;20424;-69
2022/05/03 11:31:59;;;;;;;1.10;1.00;;;18.70;58.30;;;;;;5033824;28;20409;-72
2022/05/03 11:34:24;;;;;;;0.67;0.67;;;18.30;58.80;;;;;;5033322;28;20991;-68
2022/05/03 11:36:50;;;;;;;1.13;0.80;;;18.60;58.50;;;;;;5033819;28;20499;-69
2022/05/03 11:39:17;;;;;;;0.87;0.83;;;18.60;58.70;;;;;;5033871;28;20199;-69
2022/05/03 11:41:43;;;;;;;4.10;1.53;;;18.60;58.50;;;;;;5033708;28;20189;-69
2022/05/03 11:44:09;;;;;;;2.07;1.77;;;18.90;59.00;;;;;;5033366;28;20420;-69
2022/05/03 11:46:37;;;;;;;4.47;3.20;;;19.00;59.60;;;;;;5033420;28;20833;-68
2022/05/03 11:49:05;;;;;;;1.20;1.00;;;19.40;59.40;;;;;;5033308;28;20958;-69
2022/05/03 11:57:43;;;;;;;0.90;0.80;;;18.30;57.80;;;;;;5033389;28;20412;-69
2022/05/03 12:00:12;;;;;;;2.70;1.00;;;18.50;58.10;;;;;;5032951;28;20435;-69
2022/05/03 12:02:41;;;;;;;1.00;0.80;;;18.60;59.00;;;;;;5033263;28;20414;-69
2022/05/03 12:05:07;;;;;;;0.80;0.70;;;18.90;58.70;;;;;;5033006;28;20466;-70
2022/05/03 12:07:41;;;;;;;1.67;1.20;;;18.80;59.50;;;;;;5033036;28;20439;-68
2022/05/03 12:10:20;;;;;;;1.60;1.03;;;18.80;59.30;;;;;;5033027;28;20420;-68
2022/05/03 12:13:08;;;;;;;0.80;0.70;;;19.00;58.60;;;;;;5032886;28;20417;-68
2022/05/03 12:15:56;;;;;;;0.90;0.80;;;19.20;59.10;;;;;;5034261;28;20464;-68
2022/05/03 12:18:28;;;;;;;1.27;1.00;;;19.10;59.30;;;;;;5017658;28;20819;-68
2022/05/03 12:20:57;;;;;;;0.77;0.77;;;19.50;59.80;;;;;;5032572;28;20459;-72
2022/05/03 12:23:26;;;;;;;0.93;0.83;;;19.90;59.50;;;;;;5032574;28;20430;-69
2022/05/03 12:25:53;;;;;;;0.80;0.77;;;20.00;58.70;;;;;;5032781;28;20410;-69
2022/05/03 12:28:20;;;;;;;0.90;0.80;;;19.50;57.80;;;;;;5033226;28;20409;-68
2022/05/03 12:30:55;;;;;;;1.00;0.80;;;19.80;58.20;;;;;;5032455;28;20851;-70
2022/05/03 12:33:21;;;;;;;1.40;1.10;;;20.00;59.60;;;;;;5032671;28;20485;-69
2022/05/03 12:35:47;;;;;;;0.80;0.80;;;20.60;59.10;;;;;;5032154;28;21024;-69
2022/05/03 12:38:12;;;;;;;1.47;1.13;;;20.40;58.60;;;;;;5032735;28;20194;-70
2022/05/03 12:40:51;;;;;;;0.70;0.60;;;20.50;58.30;;;;;;5033008;28;20521;-69
2022/05/03 12:43:18;;;;;;;0.73;0.60;;;19.90;58.00;;;;;;5048994;28;20262;-70
2022/05/03 12:46:10;;;;;;;2.00;0.70;;;19.70;57.90;;;;;;5032166;28;20426;-69
2022/05/03 12:48:38;;;;;;;0.80;0.70;;;19.50;58.80;;;;;;5029264;28;20509;-70
2022/05/03 12:51:05;;;;;;;1.37;1.10;;;19.60;58.90;;;;;;5032014;28;20981;-69
2022/05/03 12:53:34;;;;;;;0.90;0.80;;;20.00;59.00;;;;;;5032057;28;20413;-70
2022/05/03 12:58:21;;;;;;;0.80;0.60;;;20.20;58.00;;;;;;5032363;28;20402;-70
2022/05/03 12:58:47;;;;;;;0.67;0.67;;;20.10;57.80;;;;;;5031882;28;20438;-70
2022/05/03 13:01:13;;;;;;;0.90;0.80;;;19.50;59.70;;;;;;5036896;28;20396;-70
2022/05/03 13:03:39;;;;;;;1.33;0.93;;;20.00;60.40;;;;;;5032103;28;20461;-69
2022/05/03 13:06:04;;;;;;;1.90;1.50;;;20.80;59.70;;;;;;5032021;28;20214;-70
2022/05/03 13:08:30;;;;;;;1.37;1.27;;;21.20;59.50;;;;;;5032179;28;20188;-68
2022/05/03 13:10:55;;;;;;;1.10;0.80;;;21.20;58.20;;;;;;5031752;28;20185;-69
2022/05/03 13:13:21;;;;;;;1.00;0.93;;;20.60;57.80;;;;;;5032168;28;20165;-69
2022/05/03 13:15:47;;;;;;;2.13;1.47;;;20.60;58.90;;;;;;5031906;28;20233;-69
2022/05/03 13:18:12;;;;;;;1.40;0.97;;;20.10;59.40;;;;;;5031869;28;20427;-70
2022/05/03 13:20:38;;;;;;;0.70;0.70;;;20.70;59.00;;;;;;5032014;28;20219;-69
2022/05/03 13:23:04;;;;;;;0.80;0.80;;;20.60;58.40;;;;;;5014017;28;20168;-70
2022/05/03 13:25:30;;;;;;;2.83;1.40;;;20.40;58.30;;;;;;5031752;28;20913;-69
2022/05/03 13:27:56;;;;;;;0.97;0.87;;;20.30;59.80;;;;;;5031690;28;20190;-68
2022/05/03 13:30:22;;;;;;;1.37;0.60;;;20.40;59.30;;;;;;5031582;28;20200;-68
2022/05/03 13:32:48;;;;;;;0.77;0.77;;;20.40;58.40;;;;;;5031519;28;20627;-70
2022/05/03 13:35:13;;;;;;;0.87;0.87;;;20.70;58.50;;;;;;5031509;28;20450;-69
2022/05/03 13:40:29;;;;;;;0.73;0.70;;;19.80;59.20;;;;;;5031051;28;20204;-70